Time;durP1;ratioP1;P1;durP2;ratioP2;P2;SDS_P1;SDS_P2;PMS_P1;PMS_P2;Temp;Humidity;BMP_temperature;BMP_pressure;BME280_temperature;BME280_humidity;BME280_pressure;Samples;Min_cycle;Max_cycle;Signal;HPM_P1;HPM_P2
2023/01/26 00:01:30;;;;;;;65.90;30.80;;;;;;;-0.49;81.67;101331.81;1754619;81;21211;-81
2023/01/26 00:04:36;;;;;;;68.17;31.20;;;;;;;-0.39;81.61;101335.75;1756031;81;21191;-81
2023/01/26 00:07:44;;;;;;;67.87;29.87;;;;;;;-0.54;82.08;101333.39;1755775;81;21240;-82
2023/01/26 00:10:50;;;;;;;72.45;30.90;;;;;;;-0.47;81.86;101337.09;1754394;81;21267;-81
2023/01/26 00:13:57;;;;;;;70.92;33.00;;;;;;;-0.51;81.34;101336.41;1755740;81;21231;-80
2023/01/26 00:16:57;;;;;;;64.22;32.42;;;;;;;-0.67;81.86;101326.92;1754511;81;21187;-80
2023/01/26 00:20:03;;;;;;;74.58;33.90;;;;;;;-0.57;81.71;101329.99;1755779;81;21195;-80
2023/01/26 00:23:09;;;;;;;71.28;36.05;;;;;;;-0.72;81.87;101323.60;1756378;81;21203;-81
2023/01/26 00:26:15;;;;;;;72.45;34.27;;;;;;;-0.74;81.85;101323.30;1754485;81;21789;-81
2023/01/26 00:29:20;;;;;;;71.75;37.00;;;;;;;-0.77;81.91;101324.32;1754718;81;21204;-81
2023/01/26 00:32:27;;;;;;;75.32;35.48;;;;;;;-0.73;81.58;101323.22;1755793;81;21786;-80
2023/01/26 00:35:33;;;;;;;89.07;39.42;;;;;;;-0.78;81.59;101327.48;1756028;81;21730;-81
2023/01/26 00:38:38;;;;;;;79.60;37.40;;;;;;;-0.81;81.30;101322.73;1755319;81;21212;-81
2023/01/26 00:45:00;;;;;;;70.95;34.48;;;;;;;-0.72;80.66;101327.64;1755926;81;21746;-80
2023/01/26 00:48:05;;;;;;;74.58;34.18;;;;;;;-1.02;81.22;101323.38;1754566;81;21187;-81
2023/01/26 00:51:12;;;;;;;72.37;35.20;;;;;;;-0.92;81.28;101319.27;1755702;81;21235;-81
2023/01/26 00:54:18;;;;;;;78.78;34.33;;;;;;;-1.11;81.35;101318.47;1755797;81;21240;-80
2023/01/26 00:57:24;;;;;;;71.17;35.13;;;;;;;-1.42;82.54;101321.79;1755499;81;21251;-82
2023/01/26 01:00:31;;;;;;;83.07;38.35;;;;;;;-1.21;82.31;101315.85;1754515;81;21179;-82
2023/01/26 01:03:36;;;;;;;89.28;41.23;;;;;;;-1.35;82.33;101312.50;1755884;81;21191;-81
2023/01/26 01:06:43;;;;;;;77.45;35.63;;;;;;;-1.56;83.15;101319.30;1755932;81;21171;-81
2023/01/26 01:09:51;;;;;;;71.35;36.10;;;;;;;-1.48;83.01;101314.05;1754681;81;21279;-80
2023/01/26 01:12:57;;;;;;;67.03;34.27;;;;;;;-1.75;84.15;101316.24;1755983;81;21235;-81
2023/01/26 01:16:04;;;;;;;70.50;34.25;;;;;;;-1.82;84.82;101316.55;1754533;81;21199;-81
2023/01/26 01:19:10;;;;;;;71.28;33.73;;;;;;;-1.92;84.94;101313.91;1755143;81;21223;-81
2023/01/26 01:22:17;;;;;;;64.10;32.03;;;;;;;-1.81;84.86;101308.89;1754346;81;21226;-81
2023/01/26 01:25:23;;;;;;;76.90;35.40;;;;;;;-1.76;84.70;101306.47;1755507;81;21227;-81
2023/01/26 01:28:30;;;;;;;80.92;35.33;;;;;;;-1.74;84.63;101301.44;1754520;81;21211;-80
2023/01/26 01:31:36;;;;;;;79.00;34.60;;;;;;;-1.72;84.61;101304.03;1754568;81;21176;-82
2023/01/26 01:34:42;;;;;;;83.78;35.75;;;;;;;-1.71;84.68;101305.77;1754540;81;21267;-80
2023/01/26 01:37:47;;;;;;;79.90;36.53;;;;;;;-1.69;84.60;101299.41;1755880;81;21184;-81
2023/01/26 01:40:53;;;;;;;76.22;34.40;;;;;;;-1.63;84.66;101295.07;1755374;81;21208;-80
2023/01/26 01:43:58;;;;;;;97.47;36.80;;;;;;;-1.66;84.35;101299.70;1755960;81;21760;-81
2023/01/26 01:47:16;;;;;;;70.05;34.78;;;;;;;-1.60;84.04;101293.59;1756925;81;21144;-81
2023/01/26 01:50:22;;;;;;;91.32;37.15;;;;;;;-1.64;83.99;101293.34;1754807;81;21366;-81
2023/01/26 01:53:30;;;;;;;71.42;34.75;;;;;;;-1.82;84.26;101291.54;1755746;81;21183;-81
2023/01/26 01:56:36;;;;;;;72.80;33.13;;;;;;;-1.71;84.42;101288.33;1755223;81;21263;-81
2023/01/26 01:59:42;;;;;;;77.75;34.08;;;;;;;-1.70;84.26;101291.41;1723899;82;21236;-81
2023/01/26 02:06:51;;;;;;;65.25;31.95;;;;;;;-1.71;84.12;101287.86;1741995;82;22092;-80
2023/01/26 02:13:20;;;;;;;75.75;33.73;;;;;;;-2.08;85.67;101287.39;1741700;82;21189;-80
2023/01/26 02:16:20;;;;;;;54.20;24.10;;;;;;;-2.09;85.88;101285.66;1696164;84;21212;-80
2023/01/26 02:19:45;;;;;;;67.75;32.98;;;;;;;-2.19;86.01;101291.93;1741711;82;21275;-80
2023/01/26 02:23:01;;;;;;;67.85;32.23;;;;;;;-2.25;86.03;101289.55;1696238;84;21216;-80
2023/01/26 02:26:20;;;;;;;68.22;32.58;;;;;;;-2.42;86.02;101286.75;1741692;82;21793;-80
2023/01/26 02:29:27;;;;;;;77.20;33.87;;;;;;;-2.52;86.38;101280.94;1696284;84;21770;-80
2023/01/26 02:32:32;;;;;;;64.75;30.35;;;;;;;-2.48;86.57;101276.33;1741797;82;21236;-82
2023/01/26 02:35:38;;;;;;;57.85;29.27;;;;;;;-2.45;86.36;101281.05;1696502;84;21223;-81
2023/01/26 02:38:50;;;;;;;66.97;32.48;;;;;;;-2.55;86.70;101274.84;1741862;82;21810;-81
2023/01/26 02:45:21;;;;;;;65.47;33.58;;;;;;;-2.57;86.14;101271.77;1741733;82;21731;-80
2023/01/26 02:51:52;;;;;;;79.82;35.40;;;;;;;-2.66;86.82;101271.32;1741699;82;21189;-81
2023/01/26 02:58:22;;;;;;;74.87;34.88;;;;;;;-2.69;87.12;101270.97;1742683;82;21188;-81
2023/01/26 03:01:27;;;;;;;80.17;34.90;;;;;;;-2.67;87.40;101269.11;1694257;84;21211;-80
2023/01/26 03:04:32;;;;;;;72.22;33.98;;;;;;;-2.57;87.35;101266.89;1724539;83;21247;-81
2023/01/26 03:07:39;;;;;;;71.45;33.95;;;;;;;-2.54;87.47;101262.74;1692479;84;21212;-81
2023/01/26 03:10:46;;;;;;;69.05;34.15;;;;;;;-2.47;87.42;101264.66;1723745;83;21282;-81
2023/01/26 03:13:53;;;;;;;73.67;34.40;;;;;;;-2.45;87.50;101265.45;1694011;84;21777;-81
2023/01/26 03:16:58;;;;;;;73.30;36.05;;;;;;;-2.47;87.29;101258.83;1723110;83;21243;-82
2023/01/26 03:30:15;;;;;;;80.80;34.98;;;;;;;-2.50;87.39;101256.75;1724268;83;21243;-81
2023/01/26 03:33:23;;;;;;;78.30;35.43;;;;;;;-2.59;87.60;101258.94;1693541;83;21295;-82
2023/01/26 03:36:29;;;;;;;83.30;35.58;;;;;;;-2.55;87.03;101255.62;1724160;83;21200;-81
2023/01/26 03:56:24;;;;;;;84.50;38.95;;;;;;;-2.51;86.19;101256.36;1724679;83;21204;-81
2023/01/26 03:59:38;;;;;;;82.17;37.33;;;;;;;-2.63;86.48;101255.13;1692392;84;21252;-81
2023/01/26 04:09:33;;;;;;;74.82;34.23;;;;;;;-2.35;85.75;101266.80;1755251;81;21552;-81
2023/01/26 04:12:40;;;;;;;64.17;32.90;;;;;;;-2.41;85.37;101265.71;1753794;81;21239;-81
2023/01/26 04:22:28;;;;;;;78.55;36.88;;;;;;;-2.58;84.26;101275.88;1753972;81;21878;-80
2023/01/26 04:25:34;;;;;;;85.10;36.95;;;;;;;-2.66;84.19;101272.19;1755275;81;21240;-80
2023/01/26 04:28:39;;;;;;;81.42;33.78;;;;;;;-3.04;83.95;101270.33;1754696;81;21215;-81
2023/01/26 04:31:45;;;;;;;74.92;35.20;;;;;;;-3.19;83.39;101269.19;1753746;81;21239;-81
2023/01/26 04:34:52;;;;;;;73.35;32.60;;;;;;;-3.32;83.15;101274.18;1756226;81;21782;-81
2023/01/26 04:37:58;;;;;;;72.03;32.65;;;;;;;-3.35;82.92;101272.48;1755281;81;21240;-80
2023/01/26 04:41:06;;;;;;;69.20;32.13;;;;;;;-3.42;82.60;101269.69;1755240;81;21341;-82
2023/01/26 04:44:13;;;;;;;76.53;33.20;;;;;;;-3.47;82.34;101273.02;1754585;81;21219;-83
2023/01/26 04:47:20;;;;;;;67.95;33.67;;;;;;;-3.58;82.37;101273.91;1755143;81;21196;-81
2023/01/26 04:50:27;;;;;;;72.90;33.10;;;;;;;-3.74;82.44;101274.14;1755344;81;21801;-81
2023/01/26 04:53:32;;;;;;;74.22;32.60;;;;;;;-3.72;82.54;101276.28;1753900;81;21196;-81
2023/01/26 04:56:40;;;;;;;70.87;32.03;;;;;;;-3.87;83.04;101277.77;1753975;81;21191;-81
2023/01/26 04:59:46;;;;;;;68.22;33.35;;;;;;;-3.91;83.38;101277.01;1754559;81;21227;-81
2023/01/26 05:02:52;;;;;;;82.10;35.65;;;;;;;-3.99;83.32;101275.13;1746150;81;21204;-81
2023/01/26 05:05:59;;;;;;;71.60;35.58;;;;;;;-3.94;83.17;101275.81;1694597;84;21785;-81
2023/01/26 05:09:07;;;;;;;59.85;28.27;;;;;;;-4.04;83.80;101277.11;1742800;82;21200;-81
2023/01/26 05:12:33;;;;;;;69.30;33.42;;;;;;;-3.87;83.60;101281.30;1696191;84;21259;-81
2023/01/26 05:15:58;;;;;;;67.05;32.33;;;;;;;-3.96;83.14;101279.47;1741587;82;21240;-81
2023/01/26 05:19:23;;;;;;;64.03;33.00;;;;;;;-4.10;84.07;101277.33;1695862;84;21256;-81
2023/01/26 05:22:29;;;;;;;63.38;32.05;;;;;;;-3.99;84.98;101275.59;1709941;83;21239;-81
2023/01/26 05:25:48;;;;;;;78.43;31.80;;;;;;;-3.79;84.37;101270.79;1689099;83;21208;-81
2023/01/26 05:28:56;;;;;;;69.53;33.48;;;;;;;-3.69;84.57;101269.48;1708991;83;21199;-81
2023/01/26 05:32:02;;;;;;;73.22;36.00;;;;;;;-3.62;84.68;101272.33;1727687;83;21164;-80
2023/01/26 05:35:08;;;;;;;62.98;31.62;;;;;;;-3.56;84.69;101270.73;1726677;83;21746;-81
2023/01/26 05:38:17;;;;;;;61.58;31.12;;;;;;;-3.48;83.99;101275.30;1726453;83;21240;-80
2023/01/26 05:41:23;;;;;;;66.00;30.95;;;;;;;-3.51;84.60;101270.53;1726652;83;21243;-81
2023/01/26 05:44:42;;;;;;;65.57;29.63;;;;;;;-3.39;84.36;101285.62;1725643;83;21211;-81
2023/01/26 05:47:51;;;;;;;77.50;30.92;;;;;;;-3.37;84.06;101285.55;1726602;83;21204;-80
2023/01/26 05:50:56;;;;;;;68.85;33.80;;;;;;;-3.40;83.55;101283.85;1727742;83;21707;-81
2023/01/26 05:54:02;;;;;;;56.02;29.98;;;;;;;-3.31;83.26;101284.41;1726909;83;21212;-81
2023/01/26 05:57:11;;;;;;;72.30;33.00;;;;;;;-3.06;83.01;101293.12;1726705;83;21777;-81
2023/01/26 06:00:19;;;;;;;61.25;30.62;;;;;;;-3.15;83.49;101296.23;1726031;83;21231;-81
2023/01/26 06:03:27;;;;;;;64.87;31.37;;;;;;;-3.06;83.92;101297.62;1729448;81;21259;-81
2023/01/26 06:06:32;;;;;;;67.62;35.30;;;;;;;-3.03;84.25;101297.50;1784369;80;21278;-80
2023/01/26 06:09:41;;;;;;;69.45;34.63;;;;;;;-2.89;84.24;101303.98;1777138;80;21205;-79
2023/01/26 06:12:49;;;;;;;72.32;34.92;;;;;;;-2.74;83.95;101299.77;1752910;81;21172;-82
2023/01/26 06:16:02;;;;;;;64.10;32.78;;;;;;;-2.71;83.94;101302.80;1766938;80;21175;-80
2023/01/26 06:19:08;;;;;;;67.60;32.23;;;;;;;-2.58;83.62;101301.32;1775648;80;21751;-81
2023/01/26 06:22:19;;;;;;;58.33;31.87;;;;;;;-2.49;82.99;101299.57;1760429;80;21212;-80
2023/01/26 06:25:24;;;;;;;51.20;25.43;;;;;;;-2.28;82.40;101300.86;1754162;80;28919;-81
2023/01/26 06:28:29;;;;;;;62.78;29.50;;;;;;;-2.13;81.53;101301.48;1730591;82;21156;-81
2023/01/26 06:31:30;;;;;;;61.13;30.30;;;;;;;-2.00;80.70;101299.98;1736935;82;21167;-80
2023/01/26 06:34:35;;;;;;;55.85;28.07;;;;;;;-2.72;82.45;101298.39;1735893;80;21212;-81
2023/01/26 06:37:40;;;;;;;65.20;31.68;;;;;;;-2.18;82.20;101300.83;1735315;82;21236;-79
2023/01/26 06:40:46;;;;;;;59.80;31.87;;;;;;;-1.88;80.72;101304.78;1734638;80;21249;-79
2023/01/26 06:43:53;;;;;;;60.10;31.87;;;;;;;-2.16;81.33;101304.33;1734649;82;21196;-79
2023/01/26 06:46:58;;;;;;;64.27;32.00;;;;;;;-2.04;81.37;101301.53;1730282;82;21277;-80
2023/01/26 06:50:04;;;;;;;70.52;35.33;;;;;;;-1.59;80.69;101302.51;1734496;82;21137;-81
2023/01/26 06:53:04;;;;;;;62.53;34.53;;;;;;;-1.76;81.08;101306.47;1738726;80;21281;-81
2023/01/26 06:55:58;;;;;;;74.92;37.70;;;;;;;-1.58;81.32;101305.58;1717822;82;21201;-80
2023/01/26 06:59:21;;;;;;;92.50;44.27;;;;;;;-1.70;81.50;101311.52;1730569;80;21260;-79
2023/01/26 07:02:40;;;;;;;175.03;60.48;;;;;;;-1.57;81.26;101318.05;1687391;83;21228;-80
2023/01/26 07:05:46;;;;;;;101.65;45.63;;;;;;;-1.53;81.85;101308.91;1658273;84;21223;-81
2023/01/26 07:08:52;;;;;;;80.03;39.25;;;;;;;-1.49;81.30;101307.81;1694626;83;21281;-81
2023/01/26 07:11:59;;;;;;;78.57;38.42;;;;;;;-1.52;81.42;101313.32;1698129;83;21809;-83
2023/01/26 07:15:05;;;;;;;68.45;34.67;;;;;;;-1.48;81.66;101310.02;1684411;84;21169;-80
2023/01/26 07:18:16;;;;;;;72.97;36.68;;;;;;;-1.45;82.09;101305.86;1690648;84;21270;-82
2023/01/26 07:21:24;;;;;;;66.95;35.05;;;;;;;-1.62;82.99;101310.69;1694678;84;21206;-83
2023/01/26 07:24:29;;;;;;;64.67;34.50;;;;;;;-1.48;82.80;101311.36;1698008;84;25432;-82
2023/01/26 07:27:36;;;;;;;70.97;36.38;;;;;;;-1.16;81.81;101314.66;1687322;84;21238;-81
2023/01/26 07:30:42;;;;;;;67.95;36.08;;;;;;;-1.18;81.38;101315.67;1689845;84;21222;-83
2023/01/26 07:33:49;;;;;;;90.60;45.43;;;;;;;-1.16;81.08;101313.33;1696798;83;21274;-82
2023/01/26 07:36:56;;;;;;;86.28;43.15;;;;;;;-1.10;81.11;101306.77;1696569;82;21884;-79
2023/01/26 07:40:03;;;;;;;75.12;38.05;;;;;;;-1.18;81.31;101305.80;1699897;83;21245;-80
2023/01/26 07:43:03;;;;;;;75.10;39.50;;;;;;;-0.94;80.67;101305.50;1696872;83;21321;-79
2023/01/26 07:46:02;;;;;;;;;;;;;;;-0.96;80.82;101313.65;1709482;82;21808;-80
2023/01/26 07:48:47;;;;;;;80.53;36.85;;;;;;;-1.13;81.09;101309.16;1702803;84;20664;-81
2023/01/26 07:51:40;;;;;;;66.57;34.95;;;;;;;-1.27;81.83;101308.08;1703038;84;21206;-81
2023/01/26 07:54:26;;;;;;;75.50;36.23;;;;;;;-1.31;82.15;101310.07;1698399;84;21227;-81
2023/01/26 07:57:20;;;;;;;67.60;35.40;;;;;;;-1.34;82.46;101300.34;1696429;84;21580;-79
2023/01/26 08:00:07;;;;;;;67.12;34.90;;;;;;;-1.24;82.22;101300.75;1700311;84;21888;-81
2023/01/26 08:03:01;;;;;;;78.20;39.35;;;;;;;-1.15;82.34;101299.42;1692915;84;21331;-82
2023/01/26 08:05:54;;;;;;;81.97;38.28;;;;;;;-1.17;81.95;101301.33;1699626;83;21230;-81
2023/01/26 08:08:59;;;;;;;82.60;37.78;;;;;;;-0.83;82.03;101301.81;1709108;83;21256;-81
2023/01/26 08:12:04;;;;;;;99.80;48.13;;;;;;;-0.79;81.35;101305.60;1673453;84;21348;-82
2023/01/26 08:15:10;;;;;;;74.37;39.18;;;;;;;-0.62;80.93;101298.47;1681928;84;21153;-82
2023/01/26 08:18:16;;;;;;;75.72;38.40;;;;;;;-0.52;80.41;101299.27;1699395;83;21665;-81
2023/01/26 08:21:23;;;;;;;77.97;40.20;;;;;;;-0.80;80.93;101301.63;1686316;84;21176;-82
2023/01/26 08:24:28;;;;;;;61.90;31.33;;;;;;;-0.79;81.47;101295.34;1682657;83;29799;-82
2023/01/26 08:27:33;;;;;;;73.12;36.48;;;;;;;-0.73;80.92;101292.32;1681428;83;21165;-80
2023/01/26 08:30:40;;;;;;;67.35;33.28;;;;;;;-0.43;80.26;101282.23;1703229;83;21157;-80
2023/01/26 08:33:46;;;;;;;64.32;32.80;;;;;;;-0.69;79.89;101297.06;1709909;83;21167;-79
2023/01/26 08:36:54;;;;;;;75.60;36.15;;;;;;;-0.36;79.10;101282.30;1697151;83;21272;-81
2023/01/26 08:39:59;;;;;;;70.10;32.73;;;;;;;-0.41;79.10;101279.87;1696719;84;21727;-81
2023/01/26 08:43:07;;;;;;;62.85;31.33;;;;;;;-0.15;78.50;101274.88;1693710;83;21214;-82
2023/01/26 08:46:13;;;;;;;74.58;34.23;;;;;;;-0.33;78.30;101275.40;1675229;84;22336;-81
2023/01/26 08:49:18;;;;;;;64.97;33.15;;;;;;;-0.04;77.47;101268.45;1697549;84;21193;-81
2023/01/26 08:52:23;;;;;;;69.82;32.33;;;;;;;-0.14;78.00;101267.20;1698399;83;21208;-81
2023/01/26 08:55:31;;;;;;;63.73;30.08;;;;;;;-0.12;77.35;101259.93;1696040;83;21247;-81
2023/01/26 08:58:37;;;;;;;71.90;36.30;;;;;;;0.05;76.59;101262.56;1697566;83;21247;-81
2023/01/26 09:01:42;;;;;;;72.65;32.40;;;;;;;0.05;76.24;101262.56;1685930;83;21187;-82
2023/01/26 09:04:49;;;;;;;66.80;31.52;;;;;;;-0.16;76.48;101257.02;1697998;84;21193;-81
2023/01/26 09:07:54;;;;;;;51.33;25.50;;;;;;;-0.38;78.06;101248.77;1691599;84;21134;-81
2023/01/26 09:11:00;;;;;;;50.00;24.82;;;;;;;-0.26;77.64;101245.89;1688119;84;21212;-80
2023/01/26 09:14:06;;;;;;;41.80;22.40;;;;;;;-0.04;76.36;101240.20;1686154;84;21193;-82
2023/01/26 09:17:11;;;;;;;42.15;20.37;;;;;;;-0.04;75.78;101237.03;1689059;84;21200;-81
2023/01/26 09:20:18;;;;;;;53.63;20.65;;;;;;;-0.05;74.83;101234.41;1674914;85;21208;-81
2023/01/26 09:23:24;;;;;;;43.95;18.52;;;;;;;0.16;74.30;101230.52;1685044;84;21213;-80
2023/01/26 09:26:30;;;;;;;46.48;19.75;;;;;;;-0.24;73.35;101229.19;1651991;85;34374;-79
2023/01/26 09:29:36;;;;;;;50.83;21.95;;;;;;;-0.11;72.50;101224.88;1664899;84;21210;-81
2023/01/26 09:32:42;;;;;;;41.77;21.93;;;;;;;-0.01;72.89;101222.53;1691401;84;21275;-80
2023/01/26 09:35:50;;;;;;;40.52;19.40;;;;;;;-0.06;73.57;101227.30;1694854;82;21197;-80
2023/01/26 09:38:49;;;;;;;38.55;19.75;;;;;;;-0.03;73.81;101222.63;1700452;82;21268;-79
2023/01/26 09:42:05;;;;;;;42.13;20.32;;;;;;;0.07;73.55;101219.42;1693574;84;21879;-81
2023/01/26 09:45:29;;;;;;;43.00;20.82;;;;;;;0.25;72.67;101222.41;1694993;82;21704;-81
2023/01/26 09:48:58;;;;;;;43.58;20.40;;;;;;;0.29;72.76;101221.76;1703082;84;21280;-80
2023/01/26 09:52:22;;;;;;;44.75;17.52;;;;;;;0.16;73.45;101215.72;1696247;84;21276;-81
2023/01/26 09:55:30;;;;;;;32.33;16.93;;;;;;;0.31;72.85;101211.77;1671276;84;21674;-82
2023/01/26 09:58:45;;;;;;;38.45;17.95;;;;;;;0.37;72.76;101213.61;1700370;84;21533;-82
2023/01/26 10:02:21;;;;;;;44.85;19.98;;;;;;;0.48;72.17;101200.41;1662402;84;21197;-80
2023/01/26 10:05:38;;;;;;;40.35;18.60;;;;;;;0.36;72.84;101204.28;1697553;82;21273;-82
2023/01/26 10:08:38;;;;;;;47.73;22.67;;;;;;;0.35;73.04;101199.86;1708671;82;21226;-81
2023/01/26 10:11:48;;;;;;;39.10;18.57;;;;;;;0.32;73.80;101199.55;1712199;83;21187;-83
2023/01/26 10:15:12;;;;;;;43.98;20.05;;;;;;;0.81;72.43;101199.84;1715294;82;21756;-83
2023/01/26 10:18:32;;;;;;;52.55;19.75;;;;;;;0.92;72.32;101189.28;1713587;82;21192;-83
2023/01/26 10:21:45;;;;;;;33.50;18.30;;;;;;;1.28;70.85;101187.50;1717210;82;21721;-84
2023/01/26 10:24:54;;;;;;;34.23;19.23;;;;;;;1.37;69.95;101184.23;1714216;82;35661;-83
2023/01/26 10:27:59;;;;;;;36.33;17.07;;;;;;;0.98;70.38;101174.94;1703853;82;22517;-81
2023/01/26 10:31:06;;;;;;;29.85;16.23;;;;;;;1.21;71.12;101169.97;1709122;82;21419;-80
2023/01/26 10:34:18;;;;;;;39.15;18.42;;;;;;;1.35;70.61;101165.92;1694281;83;21236;-81
2023/01/26 10:37:34;;;;;;;35.23;15.65;;;;;;;1.26;70.49;101158.41;1677212;84;21203;-80
2023/01/26 10:40:44;;;;;;;31.65;15.28;;;;;;;1.86;68.98;101164.05;1701925;84;21200;-83
2023/01/26 10:43:51;;;;;;;32.50;16.60;;;;;;;1.60;68.43;101153.58;1646764;85;21191;-82
2023/01/26 10:47:16;;;;;;;33.50;15.65;;;;;;;1.24;69.54;101150.92;1649938;87;21726;-81
2023/01/26 10:50:30;;;;;;;36.68;16.40;;;;;;;1.33;69.25;101144.95;1687062;84;21591;-81
2023/01/26 10:53:35;;;;;;;40.10;17.67;;;;;;;1.56;69.05;101144.84;1686882;83;21176;-82
2023/01/26 10:56:41;;;;;;;26.30;14.87;;;;;;;1.51;69.57;101145.14;1694593;83;21192;-82
2023/01/26 11:00:07;;;;;;;37.20;14.85;;;;;;;1.71;68.42;101138.45;1657492;83;21214;-82
2023/01/26 11:03:24;;;;;;;36.83;16.87;;;;;;;1.19;70.18;101137.73;1674315;83;21275;-80
2023/01/26 11:06:29;;;;;;;30.62;13.58;;;;;;;1.59;69.63;101137.02;1696543;84;21348;-81
2023/01/26 11:09:36;;;;;;;33.38;13.32;;;;;;;1.59;68.99;101127.09;1641326;85;21240;-81
2023/01/26 11:12:43;;;;;;;34.75;14.40;;;;;;;1.99;68.41;101127.20;1659569;85;21248;-81
2023/01/26 11:15:53;;;;;;;30.02;12.50;;;;;;;1.81;68.42;101123.02;1710169;82;21190;-81
2023/01/26 11:19:08;;;;;;;20.90;11.85;;;;;;;1.94;67.71;101125.30;1712050;82;21792;-81
2023/01/26 11:22:26;;;;;;;25.20;11.60;;;;;;;1.99;67.53;101120.46;1712598;83;21789;-82
2023/01/26 11:25:47;;;;;;;25.97;11.53;;;;;;;2.00;67.20;101120.84;1714437;83;21222;-81
2023/01/26 11:29:26;;;;;;;23.32;11.68;;;;;;;1.66;67.34;101124.40;1714539;83;21508;-81
2023/01/26 11:33:13;;;;;;;23.70;10.72;;;;;;;2.08;65.48;101118.98;1680658;85;21204;-81
2023/01/26 11:36:43;;;;;;;26.12;11.73;;;;;;;2.00;66.09;101123.53;1680408;83;21231;-82
2023/01/26 11:40:09;;;;;;;18.67;8.50;;;;;;;1.92;66.03;101123.16;1653196;87;21823;-81
2023/01/26 11:43:45;;;;;;;25.72;11.03;;;;;;;1.91;66.49;101115.56;1661599;84;21224;-82
2023/01/26 11:47:28;;;;;;;24.15;11.55;;;;;;;2.02;66.04;101113.48;1708892;83;21170;-81
2023/01/26 11:50:48;;;;;;;22.60;11.15;;;;;;;1.72;67.05;101113.69;1695379;83;21575;-82
2023/01/26 11:54:18;;;;;;;23.90;10.72;;;;;;;1.48;67.77;101113.45;1706231;83;21173;-81
2023/01/26 11:57:41;;;;;;;23.73;11.33;;;;;;;1.97;66.50;101115.14;1681924;83;21200;-80
2023/01/26 12:00:58;;;;;;;25.08;12.15;;;;;;;1.96;65.93;101114.77;1715373;83;21221;-81
2023/01/26 12:04:05;;;;;;;19.62;11.53;;;;;;;2.32;65.00;101116.47;1715365;83;21191;-82
2023/01/26 12:07:50;;;;;;;25.82;12.93;;;;;;;1.71;67.07;101107.44;1714284;83;22525;-82
2023/01/26 12:10:47;;;;;;;24.47;12.60;;;;;;;1.88;67.51;101114.40;1720320;82;21741;-81
2023/01/26 12:13:56;;;;;;;27.77;13.50;;;;;;;1.62;68.24;101109.38;1737107;82;21186;-81
2023/01/26 12:17:24;;;;;;;28.25;13.65;;;;;;;1.78;67.47;101120.88;1729148;82;21300;-81
2023/01/26 12:20:56;;;;;;;33.45;14.83;;;;;;;1.54;68.70;101113.91;1734776;82;21221;-82
2023/01/26 12:24:06;;;;;;;31.37;14.45;;;;;;;1.49;70.00;101118.73;1737763;82;21258;-81
2023/01/26 12:27:17;;;;;;;37.13;18.95;;;;;;;2.07;67.82;101123.52;1746100;82;21150;-81
2023/01/26 12:30:54;;;;;;;50.33;23.90;;;;;;;2.37;68.24;101123.28;1745682;82;21190;-80
2023/01/26 12:34:02;;;;;;;31.02;15.68;;;;;;;2.43;66.89;101119.30;1744642;82;21204;-79
2023/01/26 12:37:40;;;;;;;32.33;16.05;;;;;;;2.21;67.42;101118.07;1724101;82;21296;-83
2023/01/26 12:40:53;;;;;;;33.78;15.20;;;;;;;2.40;67.16;101110.05;1743646;82;21154;-81
2023/01/26 12:44:15;;;;;;;28.50;13.88;;;;;;;2.37;66.98;101104.39;1742780;82;21812;-81
2023/01/26 12:47:46;;;;;;;29.63;12.47;;;;;;;2.45;66.26;101097.98;1745503;82;21175;-81
2023/01/26 12:51:01;;;;;;;27.58;12.40;;;;;;;2.26;67.16;101111.87;1744477;82;21198;-81
2023/01/26 12:54:26;;;;;;;28.17;12.53;;;;;;;2.07;67.87;101101.94;1744250;82;21194;-83
2023/01/26 12:57:40;;;;;;;23.57;10.95;;;;;;;2.46;66.38;101109.65;1713921;83;21248;-82
2023/01/26 13:00:45;;;;;;;24.90;11.22;;;;;;;2.61;66.14;101101.83;1743401;82;21546;-81
2023/01/26 13:04:07;;;;;;;30.62;12.30;;;;;;;2.36;66.37;101109.91;1744303;82;21209;-81
2023/01/26 13:07:12;;;;;;;26.55;12.85;;;;;;;2.19;66.58;101113.73;1743245;82;21240;-82
2023/01/26 13:10:27;;;;;;;22.77;12.35;;;;;;;2.35;67.04;101109.49;1741865;82;21803;-80
2023/01/26 13:13:40;;;;;;;27.70;13.83;;;;;;;2.14;66.66;101114.03;1708427;84;21740;-81
2023/01/26 13:16:45;;;;;;;28.10;13.53;;;;;;;2.27;67.27;101101.45;1708427;84;21477;-80
2023/01/26 13:19:59;;;;;;;26.60;13.68;;;;;;;2.24;68.02;101101.64;1665785;85;21732;-80
2023/01/26 13:23:04;;;;;;;30.77;14.60;;;;;;;2.41;67.91;101094.25;1652488;86;21205;-80
2023/01/26 13:26:28;;;;;;;39.85;16.15;;;;;;;2.48;67.28;101090.14;1644535;86;21814;-80
2023/01/26 13:29:37;;;;;;;25.85;14.28;;;;;;;2.43;67.76;101095.86;1669312;84;21201;-81
2023/01/26 13:32:53;;;;;;;27.40;13.58;;;;;;;2.44;68.25;101100.28;1660365;85;21281;-82
2023/01/26 13:35:59;;;;;;;28.10;13.65;;;;;;;2.79;66.77;101095.64;1655343;85;21500;-81
2023/01/26 13:39:20;;;;;;;25.00;11.43;;;;;;;2.90;66.50;101094.39;1660606;85;21199;-82
2023/01/26 13:42:38;;;;;;;;;;;;;;;2.40;66.84;101092.04;1648922;86;21817;-82
2023/01/26 13:46:06;;;;;;;20.95;10.85;;;;;;;2.15;67.97;101098.22;1675533;84;20224;-82
2023/01/26 13:49:31;;;;;;;24.37;11.55;;;;;;;2.18;67.95;101093.97;1658745;86;21347;-82
2023/01/26 13:52:38;;;;;;;21.35;10.82;;;;;;;2.25;68.09;101092.57;1627610;88;21252;-83
2023/01/26 13:55:51;;;;;;;18.82;10.88;;;;;;;2.28;69.17;101082.92;1842953;76;22227;-79
2023/01/26 13:58:57;;;;;;;25.60;13.50;;;;;;;2.46;67.92;101082.64;1783484;80;21182;-88
2023/01/26 14:02:03;;;;;;;22.82;11.80;;;;;;;1.97;69.07;101084.59;1782210;80;21162;-89
2023/01/26 14:05:08;;;;;;;26.20;12.13;;;;;;;2.05;69.41;101076.86;1808226;79;21752;-88
2023/01/26 14:08:16;;;;;;;29.10;12.37;;;;;;;1.74;70.00;101076.23;1789470;79;21194;-81
2023/01/26 14:11:26;;;;;;;27.22;13.00;;;;;;;2.69;68.32;101071.11;1805216;79;21158;-80
2023/01/26 14:14:36;;;;;;;39.00;14.55;;;;;;;2.22;68.82;101079.79;1805502;79;21435;-89
2023/01/26 14:17:45;;;;;;;27.27;12.90;;;;;;;2.13;69.42;101077.22;1803420;79;21188;-87
2023/01/26 14:20:50;;;;;;;35.55;16.65;;;;;;;1.98;70.15;101072.86;1801002;79;21181;-80
2023/01/26 14:24:03;;;;;;;35.10;16.00;;;;;;;2.04;70.29;101064.34;1811307;79;21160;-88
2023/01/26 14:27:09;;;;;;;30.88;16.85;;;;;;;1.65;71.11;101068.73;1804100;79;21196;-88
2023/01/26 14:30:34;;;;;;;30.48;14.90;;;;;;;1.49;72.15;101063.95;1799872;79;21250;-88
2023/01/26 14:33:40;;;;;;;28.40;14.73;;;;;;;1.47;72.11;101064.55;1795406;79;21208;-79
2023/01/26 14:36:46;;;;;;;35.55;16.12;;;;;;;1.43;72.65;101052.22;1796352;79;21243;-80
2023/01/26 14:39:52;;;;;;;37.63;16.85;;;;;;;1.27;72.97;101050.53;1795538;79;21192;-88
2023/01/26 14:43:00;;;;;;;36.58;17.20;;;;;;;1.39;73.10;101041.25;1802232;79;21176;-87
2023/01/26 14:46:19;;;;;;;46.88;21.35;;;;;;;1.54;72.54;101041.59;1807528;79;21148;-79
2023/01/26 14:49:42;;;;;;;35.92;17.87;;;;;;;1.49;72.80;101036.98;1794957;79;21183;-79
2023/01/26 14:52:51;;;;;;;40.83;18.48;;;;;;;1.41;72.93;101035.27;1816707;79;21725;-79
2023/01/26 14:55:56;;;;;;;35.17;17.37;;;;;;;1.30;73.48;101035.97;1805704;79;21295;-79
2023/01/26 14:59:03;;;;;;;37.93;17.42;;;;;;;0.82;75.17;101038.14;1801614;79;21165;-79
2023/01/26 15:02:25;;;;;;;34.75;16.87;;;;;;;1.12;74.58;101036.66;1803045;79;21703;-87
2023/01/26 15:05:42;;;;;;;41.80;16.37;;;;;;;1.14;74.14;101036.11;1803297;79;21161;-87
2023/01/26 15:08:49;;;;;;;32.83;17.20;;;;;;;1.11;74.26;101041.68;1802046;79;21220;-80
2023/01/26 15:12:16;;;;;;;39.23;18.48;;;;;;;1.11;74.25;101051.11;1785144;79;21179;-88
2023/01/26 15:15:21;;;;;;;35.35;18.80;;;;;;;1.14;74.12;101049.58;1803057;79;21224;-80
2023/01/26 15:18:20;;;;;;;43.98;18.48;;;;;;;1.14;74.18;101056.31;1803397;79;21209;-80
2023/01/26 15:21:25;;;;;;;38.15;18.95;;;;;;;0.86;74.87;101050.45;1803352;79;21153;-87
2023/01/26 15:24:14;;;;;;;41.90;17.55;;;;;;;0.83;75.49;101041.70;1803859;79;21722;-80
2023/01/26 15:27:13;;;;;;;44.42;17.52;;;;;;;0.59;75.86;101039.56;1803768;79;21195;-88